createdAt,value
2022-08-07T00:01:12.712Z,70.23
2022-08-07T00:03:51.873Z,70.20
2022-08-07T00:06:21.721Z,70.15
2022-08-07T00:08:59.886Z,70.24
2022-08-07T00:11:53.809Z,71.11
2022-08-07T00:14:21.864Z,70.86
2022-08-07T00:16:52.297Z,70.77
2022-08-07T00:19:21.568Z,70.49
2022-08-07T00:21:56.730Z,71.79
2022-08-07T00:24:28.340Z,74.09
2022-08-07T00:27:06.465Z,75.58
2022-08-07T00:29:33.889Z,74.27
2022-08-07T00:32:05.935Z,74.84
2022-08-07T00:34:35.659Z,74.14
2022-08-07T00:37:02.719Z,73.79
2022-08-07T00:39:32.002Z,72.82
2022-08-07T00:42:01.988Z,73.21
2022-08-07T00:44:33.270Z,73.19
2022-08-07T00:47:06.450Z,73.65
2022-08-07T00:50:20.814Z,73.13
2022-08-07T00:52:28.871Z,73.27
2022-08-07T00:55:00.169Z,73.48
2022-08-07T00:57:34.056Z,73.55
2022-08-07T01:00:01.182Z,73.53
2022-08-07T01:02:29.761Z,73.48
2022-08-07T01:04:58.830Z,74.14
2022-08-07T01:07:27.950Z,74.00
2022-08-07T01:10:07.236Z,74.52
2022-08-07T01:12:53.091Z,74.35
2022-08-07T01:15:22.316Z,74.27
2022-08-07T01:18:03.014Z,73.72
2022-08-07T01:20:35.292Z,74.18
2022-08-07T01:23:12.422Z,73.80
2022-08-07T01:25:55.121Z,74.38
2022-08-07T01:28:23.721Z,74.36
2022-08-07T01:30:54.058Z,73.83
2022-08-07T01:33:21.184Z,74.53
2022-08-07T01:35:54.294Z,74.66
2022-08-07T01:38:24.972Z,74.85
2022-08-07T01:41:02.075Z,74.37
2022-08-07T01:43:38.321Z,74.40
2022-08-07T01:46:05.671Z,75.02
2022-08-07T01:48:35.469Z,75.23
2022-08-07T01:52:01.019Z,75.24
2022-08-07T01:54:08.839Z,75.76
2022-08-07T01:56:49.774Z,75.75
2022-08-07T01:59:43.937Z,75.88
2022-08-07T02:03:11.680Z,75.39
2022-08-07T02:05:16.123Z,75.53
2022-08-07T02:08:02.854Z,76.29
2022-08-07T02:10:33.739Z,75.57
2022-08-07T02:13:02.848Z,75.63
2022-08-07T02:15:31.097Z,76.03
2022-08-07T02:18:02.869Z,75.86
2022-08-07T02:20:31.891Z,75.94
2022-08-07T02:23:05.098Z,76.02
2022-08-07T02:26:30.779Z,75.41
2022-08-07T02:28:25.533Z,75.39
2022-08-07T02:30:56.366Z,75.71
2022-08-07T02:33:42.140Z,76.25
2022-08-07T02:36:26.824Z,75.78
2022-08-07T02:38:57.254Z,76.18
2022-08-07T02:41:25.332Z,76.45
2022-08-07T02:44:02.087Z,77.09
2022-08-07T02:46:31.085Z,77.16
2022-08-07T02:48:58.518Z,77.50
2022-08-07T02:51:42.548Z,77.58
2022-08-07T02:54:19.319Z,77.19
2022-08-07T02:56:47.986Z,76.96
2022-08-07T02:59:19.799Z,76.96
2022-08-07T03:01:55.511Z,76.91
2022-08-07T03:04:23.574Z,77.75
2022-08-07T03:06:52.462Z,77.74
2022-08-07T03:09:43.628Z,77.64
2022-08-07T03:12:21.609Z,77.75
2022-08-07T03:14:52.488Z,77.89
2022-08-07T03:17:19.858Z,77.72
2022-08-07T03:19:54.866Z,77.34
2022-08-07T03:22:24.199Z,77.32
2022-08-07T03:24:57.328Z,77.82
2022-08-07T03:27:30.329Z,77.29
2022-08-07T03:29:58.763Z,77.51
2022-08-07T03:32:35.916Z,78.70
2022-08-07T03:35:18.342Z,79.94
2022-08-07T03:37:54.087Z,80.08
2022-08-07T03:40:23.710Z,80.93
2022-08-07T03:42:58.182Z,81.77
2022-08-07T03:45:30.895Z,82.65
2022-08-07T03:47:59.027Z,82.78
2022-08-07T03:50:28.506Z,83.04
2022-08-07T03:52:59.027Z,83.02
2022-08-07T03:55:52.796Z,83.78
2022-08-07T03:59:05.042Z,84.04
2022-08-07T04:01:13.814Z,84.38
2022-08-07T04:03:53.398Z,84.44
2022-08-07T04:06:37.158Z,84.25
2022-08-07T04:09:05.377Z,84.00
2022-08-07T04:12:25.208Z,83.69
2022-08-07T04:14:37.430Z,83.63
2022-08-07T04:17:19.758Z,84.29
2022-08-07T04:19:52.327Z,84.37
2022-08-07T04:22:23.699Z,83.93
2022-08-07T04:24:58.011Z,83.25
2022-08-07T04:27:26.593Z,82.85
2022-08-07T04:30:02.337Z,82.30
2022-08-07T04:32:34.644Z,81.87
2022-08-07T04:35:07.203Z,82.10
2022-08-07T04:37:40.380Z,82.81
2022-08-07T04:40:26.706Z,83.46
2022-08-07T04:43:01.398Z,83.92
2022-08-07T04:46:01.134Z,83.85
2022-08-07T04:48:40.756Z,84.38
2022-08-07T04:51:16.410Z,84.41
2022-08-07T04:54:09.705Z,84.18
2022-08-07T04:58:24.300Z,84.16
2022-08-07T05:00:14.256Z,83.18
2022-08-07T05:02:59.245Z,82.17
2022-08-07T05:05:52.765Z,81.55
2022-08-07T05:08:59.260Z,82.19
2022-08-07T05:11:58.552Z,82.17
2022-08-07T05:14:52.898Z,81.46
2022-08-07T05:17:51.753Z,80.23
2022-08-07T05:20:09.567Z,80.58
2022-08-07T05:22:38.218Z,80.42
2022-08-07T05:25:08.596Z,79.48
2022-08-07T05:28:16.971Z,80.04
2022-08-07T05:30:30.198Z,80.24
2022-08-07T05:33:02.396Z,80.96
2022-08-07T05:35:42.176Z,81.39
2022-08-07T05:38:10.791Z,82.16
2022-08-07T05:40:50.615Z,82.87
2022-08-07T05:43:19.499Z,81.45
2022-08-07T05:46:07.038Z,82.07
2022-08-07T05:48:34.177Z,81.32
2022-08-07T05:51:01.721Z,82.25
2022-08-07T05:54:13.457Z,82.48
2022-08-07T05:56:26.885Z,83.23
2022-08-07T05:59:00.668Z,83.70
2022-08-07T06:01:30.664Z,86.01
2022-08-07T06:04:05.183Z,85.60
2022-08-07T06:06:34.312Z,85.80
2022-08-07T06:09:04.481Z,84.45
2022-08-07T06:11:33.359Z,84.51
2022-08-07T06:14:12.014Z,83.45
2022-08-07T06:16:50.160Z,83.65
2022-08-07T06:19:47.904Z,84.12
2022-08-07T06:22:15.599Z,82.55
2022-08-07T06:24:58.331Z,82.05
2022-08-07T06:27:44.232Z,80.85
2022-08-07T06:30:24.406Z,82.03
2022-08-07T06:33:02.011Z,81.22
2022-08-07T06:35:30.553Z,79.80
2022-08-07T06:38:08.170Z,78.08
2022-08-07T06:40:50.160Z,76.78
2022-08-07T06:43:22.375Z,75.82
2022-08-07T06:45:50.628Z,75.82
2022-08-07T06:48:25.257Z,76.78
2022-08-07T06:50:54.854Z,77.42
2022-08-07T06:55:28.226Z,78.39
2022-08-07T06:56:15.391Z,77.80
2022-08-07T07:00:12.663Z,76.17
2022-08-07T07:01:33.240Z,76.17
2022-08-07T07:04:28.270Z,77.32
2022-08-07T07:07:01.028Z,74.48
2022-08-07T07:09:31.792Z,75.84
2022-08-07T07:12:07.823Z,75.54
2022-08-07T07:15:26.093Z,74.43
2022-08-07T07:18:08.814Z,74.12
2022-08-07T07:20:45.981Z,75.00
2022-08-07T07:24:09.458Z,74.75
2022-08-07T07:26:34.758Z,73.78
2022-08-07T07:29:39.573Z,74.44
2022-08-07T07:31:48.910Z,75.41
2022-08-07T07:34:22.298Z,74.41
2022-08-07T07:37:14.288Z,73.25
2022-08-07T07:39:54.905Z,73.55
2022-08-07T07:42:32.403Z,72.65
2022-08-07T07:45:02.042Z,72.72
2022-08-07T07:47:30.289Z,72.44
2022-08-07T07:50:32.445Z,71.33
2022-08-07T07:53:20.756Z,71.95
2022-08-07T07:56:01.979Z,71.01
2022-08-07T07:58:36.903Z,67.97
2022-08-07T08:02:01.929Z,68.14
2022-08-07T08:04:10.162Z,68.05
2022-08-07T08:06:40.713Z,67.02
2022-08-07T08:09:20.776Z,65.33
2022-08-07T08:12:01.750Z,66.60
2022-08-07T08:14:36.348Z,63.69
2022-08-07T08:17:56.708Z,64.86
2022-08-07T08:20:22.157Z,63.95
2022-08-07T08:23:03.251Z,59.81
2022-08-07T08:25:54.525Z,59.98
2022-08-07T08:28:38.332Z,58.88
2022-08-07T08:31:16.371Z,59.20
2022-08-07T08:33:55.467Z,57.78
2022-08-07T08:36:29.638Z,55.78
2022-08-07T08:39:00.059Z,58.44
2022-08-07T08:41:58.805Z,54.18
2022-08-07T08:44:44.917Z,54.60
2022-08-07T08:47:52.026Z,54.37
2022-08-07T08:50:35.296Z,52.59
2022-08-07T08:53:22.497Z,49.82
2022-08-07T08:56:04.336Z,52.57
2022-08-07T08:58:39.549Z,51.83
2022-08-07T09:01:29.813Z,49.93
2022-08-07T09:04:14.589Z,49.53
2022-08-07T09:06:50.084Z,48.84
2022-08-07T09:10:13.708Z,47.47
2022-08-07T09:12:53.485Z,47.78
2022-08-07T09:16:23.996Z,46.92
2022-08-07T09:18:35.000Z,51.56
2022-08-07T09:21:34.097Z,46.67
2022-08-07T09:24:32.440Z,48.82
2022-08-07T09:27:18.815Z,50.22
2022-08-07T09:30:06.562Z,48.56
2022-08-07T09:33:53.257Z,46.75
2022-08-07T09:36:18.744Z,46.91
2022-08-07T09:38:49.989Z,48.88
2022-08-07T09:41:58.962Z,50.78
2022-08-07T09:47:27.432Z,52.28
2022-08-07T09:48:01.674Z,51.84
2022-08-07T09:50:33.307Z,51.38
2022-08-07T09:53:02.075Z,49.58
2022-08-07T09:56:03.221Z,48.26
2022-08-07T09:58:43.471Z,46.98
2022-08-07T10:01:52.147Z,45.29
2022-08-07T10:05:01.344Z,48.49
2022-08-07T10:08:04.446Z,48.71
2022-08-07T10:10:43.633Z,48.43
2022-08-07T10:14:01.771Z,49.11
2022-08-07T10:16:47.606Z,47.03
2022-08-07T10:20:08.239Z,46.65
2022-08-07T10:22:51.029Z,43.32
2022-08-07T10:25:45.126Z,43.83
2022-08-07T10:28:49.423Z,43.58
2022-08-07T10:31:52.117Z,41.95
2022-08-07T10:34:42.571Z,41.54
2022-08-07T10:37:48.567Z,44.17
2022-08-07T10:40:30.541Z,44.04
2022-08-07T10:43:07.247Z,43.14
2022-08-07T10:45:44.551Z,44.26
2022-08-07T10:48:21.509Z,41.34
2022-08-07T10:51:16.784Z,40.53
2022-08-07T10:54:17.299Z,43.23
2022-08-07T10:57:08.596Z,41.78
2022-08-07T11:00:05.736Z,43.17
2022-08-07T11:02:53.335Z,44.03
2022-08-07T11:05:50.983Z,42.34
2022-08-07T11:08:45.771Z,44.52
2022-08-07T11:11:20.881Z,49.09
2022-08-07T11:14:43.607Z,45.79
2022-08-07T11:16:50.863Z,47.38
2022-08-07T11:19:27.458Z,48.68
2022-08-07T11:22:33.264Z,49.15
2022-08-07T11:25:28.511Z,49.71
2022-08-07T11:28:06.792Z,47.02
2022-08-07T11:30:58.200Z,48.11
2022-08-07T11:33:53.383Z,46.44
2022-08-07T11:36:56.464Z,47.74
2022-08-07T11:40:00.415Z,47.57
2022-08-07T11:42:50.516Z,46.62
2022-08-07T11:45:35.569Z,44.09
2022-08-07T11:48:53.843Z,42.14
2022-08-07T11:51:54.200Z,44.84
2022-08-07T11:54:53.084Z,45.11
2022-08-07T11:58:00.372Z,44.72
2022-08-07T12:01:20.257Z,42.78
2022-08-07T12:04:30.574Z,41.60
2022-08-07T12:07:09.028Z,39.93
2022-08-07T12:10:05.756Z,41.38
2022-08-07T12:12:38.851Z,42.08
2022-08-07T12:16:05.232Z,41.26
2022-08-07T12:18:15.995Z,41.61
2022-08-07T12:20:57.803Z,41.32
2022-08-07T12:24:07.574Z,44.16
2022-08-07T12:27:01.281Z,43.46
2022-08-07T12:29:46.691Z,42.63
2022-08-07T12:32:29.964Z,41.37
2022-08-07T12:34:58.072Z,41.93
2022-08-07T12:37:28.243Z,41.63
2022-08-07T12:40:47.107Z,41.27
2022-08-07T12:43:10.137Z,40.88
2022-08-07T12:46:16.009Z,40.92
2022-08-07T12:49:25.446Z,43.16
2022-08-07T12:52:14.443Z,43.36
2022-08-07T12:55:03.721Z,43.24
2022-08-07T12:57:38.811Z,41.18
2022-08-07T13:00:31.015Z,41.66
2022-08-07T13:03:13.139Z,42.03
2022-08-07T13:06:26.885Z,40.22
2022-08-07T13:10:10.147Z,39.33
2022-08-07T13:12:10.299Z,40.66
2022-08-07T13:15:06.132Z,40.07
2022-08-07T13:17:42.714Z,39.08
2022-08-07T13:20:27.705Z,38.51
2022-08-07T13:24:00.887Z,38.54
2022-08-07T13:26:06.422Z,38.39
2022-08-07T13:28:47.240Z,38.78
2022-08-07T13:31:24.598Z,40.67
2022-08-07T13:34:30.491Z,39.12
2022-08-07T13:37:29.614Z,39.42
2022-08-07T13:40:35.301Z,40.02
2022-08-07T13:43:06.528Z,42.64
2022-08-07T13:46:21.529Z,42.19
2022-08-07T13:48:33.958Z,43.62
2022-08-07T13:51:02.692Z,40.81
2022-08-07T13:54:01.732Z,41.81
2022-08-07T13:56:40.773Z,42.29
2022-08-07T13:59:24.373Z,40.42
2022-08-07T14:02:03.473Z,42.94
2022-08-07T14:04:35.747Z,40.75
2022-08-07T14:07:09.482Z,41.53
2022-08-07T14:10:12.430Z,42.67
2022-08-07T14:12:41.539Z,41.79
2022-08-07T14:15:18.789Z,39.44
2022-08-07T14:18:23.895Z,38.47
2022-08-07T14:20:48.906Z,41.37
2022-08-07T14:23:58.991Z,40.02
2022-08-07T14:26:29.914Z,39.09
2022-08-07T14:29:04.410Z,41.61
2022-08-07T14:31:43.125Z,41.13
2022-08-07T14:37:16.850Z,41.89
2022-08-07T14:40:17.751Z,42.94
2022-08-07T14:45:25.606Z,40.79
2022-08-07T14:48:19.729Z,41.17
2022-08-07T14:54:08.849Z,41.48
2022-08-07T14:56:32.041Z,41.00
2022-08-07T14:59:13.654Z,40.22
2022-08-07T15:01:58.771Z,39.82
2022-08-07T15:04:26.151Z,40.85
2022-08-07T15:06:56.871Z,42.36
2022-08-07T15:09:59.609Z,41.53
2022-08-07T15:12:25.885Z,41.09
2022-08-07T15:18:02.530Z,41.86
2022-08-07T15:20:35.823Z,40.52
2022-08-07T15:25:12.791Z,41.02
2022-08-07T15:26:20.653Z,43.00
2022-08-07T15:30:08.585Z,42.87
2022-08-07T15:32:01.676Z,40.45
2022-08-07T15:34:55.497Z,42.57
2022-08-07T15:38:17.981Z,42.79
2022-08-07T15:40:34.681Z,42.71
2022-08-07T15:43:10.541Z,42.43
2022-08-07T15:46:04.525Z,43.22
2022-08-07T15:49:03.983Z,42.36
2022-08-07T15:54:34.693Z,41.90
2022-08-07T15:57:39.761Z,41.54
2022-08-07T16:00:04.100Z,41.87
2022-08-07T16:02:41.280Z,40.91
2022-08-07T16:05:15.952Z,42.72
2022-08-07T16:08:31.521Z,43.48
2022-08-07T16:10:36.679Z,42.66
2022-08-07T16:13:59.949Z,42.32
2022-08-07T16:16:48.704Z,44.26
2022-08-07T16:20:03.712Z,43.59
2022-08-07T16:22:54.344Z,41.47
2022-08-07T16:25:54.169Z,41.45
2022-08-07T16:30:05.889Z,41.97
2022-08-07T16:31:50.755Z,42.56
2022-08-07T16:34:24.030Z,42.09
2022-08-07T16:38:03.891Z,42.05
2022-08-07T16:40:23.371Z,42.14
2022-08-07T16:44:02.439Z,43.27
2022-08-07T16:47:04.659Z,41.68
2022-08-07T16:50:28.168Z,43.17
2022-08-07T16:52:51.153Z,42.16
2022-08-07T16:55:47.105Z,42.31
2022-08-07T16:59:11.190Z,41.80
2022-08-07T17:01:41.086Z,42.43
2022-08-07T17:04:57.807Z,42.68
2022-08-07T17:07:55.458Z,42.92
2022-08-07T17:10:39.653Z,42.55
2022-08-07T17:13:41.101Z,42.71
2022-08-07T17:16:22.089Z,42.60
2022-08-07T17:18:51.567Z,43.06
2022-08-07T17:21:50.628Z,43.93
2022-08-07T17:24:27.655Z,44.05
2022-08-07T17:27:19.933Z,43.08
2022-08-07T17:30:16.160Z,43.55
2022-08-07T17:34:08.496Z,43.15
2022-08-07T17:36:26.005Z,43.72
2022-08-07T17:38:54.571Z,44.58
2022-08-07T17:42:03.097Z,43.73
2022-08-07T17:44:51.494Z,43.78
2022-08-07T17:47:55.358Z,43.71
2022-08-07T17:50:57.412Z,45.08
2022-08-07T17:54:01.667Z,45.49
2022-08-07T17:56:29.883Z,45.08
2022-08-07T17:58:56.940Z,46.50
2022-08-07T18:01:37.226Z,46.81
2022-08-07T18:04:24.714Z,46.80
2022-08-07T18:07:19.637Z,47.65
2022-08-07T18:10:06.824Z,48.10
2022-08-07T18:13:01.867Z,49.17
2022-08-07T18:15:35.931Z,49.45
2022-08-07T18:19:02.660Z,50.33
2022-08-07T18:21:42.166Z,51.14
2022-08-07T18:24:09.139Z,52.32
2022-08-07T18:27:06.818Z,53.84
2022-08-07T18:30:05.471Z,54.15
2022-08-07T18:32:35.419Z,54.03
2022-08-07T18:35:21.875Z,52.81
2022-08-07T18:38:54.779Z,58.06
2022-08-07T18:41:44.885Z,58.42
2022-08-07T18:44:26.386Z,57.01
2022-08-07T18:47:22.672Z,61.88
2022-08-07T18:50:46.055Z,63.42
2022-08-07T18:53:44.058Z,63.78
2022-08-07T18:56:35.486Z,63.66
2022-08-07T18:59:47.981Z,61.74
2022-08-07T19:02:42.622Z,59.57
2022-08-07T19:05:22.746Z,59.76
2022-08-07T19:07:57.287Z,58.49
2022-08-07T19:10:51.420Z,59.61
2022-08-07T19:13:37.863Z,59.72
2022-08-07T19:17:00.355Z,60.26
2022-08-07T19:19:17.494Z,59.82
2022-08-07T19:22:04.072Z,61.01
2022-08-07T19:24:46.233Z,61.71
2022-08-07T19:28:58.881Z,62.60
2022-08-07T19:30:57.590Z,63.52
2022-08-07T19:33:02.804Z,64.09
2022-08-07T19:35:38.956Z,63.35
2022-08-07T19:38:16.786Z,63.08
2022-08-07T19:40:50.811Z,62.69
2022-08-07T19:43:45.151Z,63.60
2022-08-07T19:46:26.585Z,63.22
2022-08-07T19:49:07.294Z,61.54
2022-08-07T19:51:52.323Z,61.21
2022-08-07T19:54:33.180Z,60.01
2022-08-07T19:58:02.986Z,61.83
2022-08-07T20:00:02.132Z,61.87
2022-08-07T20:02:34.867Z,60.38
2022-08-07T20:05:09.774Z,59.15
2022-08-07T20:07:47.219Z,58.61
2022-08-07T20:10:35.472Z,58.47
2022-08-07T20:13:26.887Z,59.23
2022-08-07T20:15:58.197Z,59.90
2022-08-07T20:18:32.880Z,59.60
2022-08-07T20:21:14.350Z,59.44
2022-08-07T20:24:31.485Z,59.14
2022-08-07T20:27:09.175Z,59.04
2022-08-07T20:29:56.724Z,59.16
2022-08-07T20:32:27.672Z,59.91
2022-08-07T20:35:10.413Z,60.04
2022-08-07T20:37:59.041Z,60.35
2022-08-07T20:40:34.615Z,60.88
2022-08-07T20:43:14.416Z,59.98
2022-08-07T20:46:26.776Z,59.88
2022-08-07T20:48:35.035Z,60.31
2022-08-07T20:51:09.532Z,59.97
2022-08-07T20:54:03.851Z,60.43
2022-08-07T20:56:29.082Z,59.45
2022-08-07T20:59:00.405Z,59.21
2022-08-07T21:01:29.858Z,59.20
2022-08-07T21:04:23.451Z,58.79
2022-08-07T21:06:55.381Z,58.89
2022-08-07T21:09:30.831Z,59.03
2022-08-07T21:12:28.760Z,59.49
2022-08-07T21:14:58.503Z,59.49
2022-08-07T21:18:17.145Z,60.52
2022-08-07T21:20:26.913Z,60.57
2022-08-07T21:22:57.870Z,60.05
2022-08-07T21:26:07.363Z,59.82
2022-08-07T21:28:51.019Z,59.92
2022-08-07T21:31:49.803Z,60.00
2022-08-07T21:34:18.994Z,60.11
2022-08-07T21:36:56.183Z,60.63
2022-08-07T21:39:51.552Z,60.26
2022-08-07T21:42:48.876Z,60.11
2022-08-07T21:46:09.455Z,60.58
2022-08-07T21:48:27.835Z,60.66
2022-08-07T21:51:20.017Z,60.04
2022-08-07T21:53:54.906Z,60.50
2022-08-07T21:56:36.208Z,60.13
2022-08-07T22:00:02.769Z,60.32
2022-08-07T22:02:27.807Z,60.42
2022-08-07T22:05:00.264Z,60.77
2022-08-07T22:07:42.734Z,61.10
2022-08-07T22:10:21.578Z,61.50
2022-08-07T22:12:55.419Z,61.54
2022-08-07T22:16:40.103Z,61.93
2022-08-07T22:18:23.734Z,61.89
2022-08-07T22:20:59.667Z,61.62
2022-08-07T22:23:46.447Z,61.26
2022-08-07T22:26:23.972Z,61.21
2022-08-07T22:29:16.720Z,61.62
2022-08-07T22:31:59.391Z,61.93
2022-08-07T22:34:54.386Z,62.34
2022-08-07T22:38:05.350Z,62.53
2022-08-07T22:40:32.067Z,62.43
2022-08-07T22:43:10.784Z,62.34
2022-08-07T22:47:02.328Z,62.05
2022-08-07T22:49:37.794Z,61.90
2022-08-07T22:52:37.702Z,62.05
2022-08-07T22:55:22.385Z,62.20
2022-08-07T22:58:10.381Z,62.00
2022-08-07T23:00:43.483Z,61.82
2022-08-07T23:03:14.903Z,63.27
2022-08-07T23:06:18.296Z,62.47
2022-08-07T23:10:06.250Z,62.62
2022-08-07T23:12:34.767Z,62.44
2022-08-07T23:16:04.665Z,62.65
2022-08-07T23:18:32.154Z,62.80
2022-08-07T23:21:16.302Z,63.49
2022-08-07T23:24:16.718Z,63.33
2022-08-07T23:27:01.527Z,63.36
2022-08-07T23:30:38.933Z,63.59
2022-08-07T23:34:19.954Z,63.39
2022-08-07T23:35:43.495Z,63.43
2022-08-07T23:38:19.107Z,63.82
2022-08-07T23:41:10.375Z,63.64
2022-08-07T23:43:58.832Z,63.50
2022-08-07T23:46:45.899Z,64.39
2022-08-07T23:49:50.660Z,64.41
2022-08-07T23:53:01.105Z,64.36
2022-08-07T23:55:53.388Z,64.12
2022-08-07T23:58:25.404Z,64.27
